Time;durP1;ratioP1;P1;durP2;ratioP2;P2;SDS_P1;SDS_P2;PMS_P1;PMS_P2;Temp;Humidity;BMP_temperature;BMP_pressure;BME280_temperature;BME280_humidity;BME280_pressure;Samples;Min_cycle;Max_cycle;Signal;HPM_P1;HPM_P2
2023/10/07 00:01:57;;;;;;;3.95;2.30;;;;;;;19.37;50.78;97546.47;10270251;28;20050;-28
2023/10/07 00:06:59;;;;;;;4.30;2.78;;;;;;;19.38;50.50;97541.41;10271763;28;20061;-28
2023/10/07 00:12:01;;;;;;;4.75;3.05;;;;;;;19.35;50.17;97538.00;10272590;28;20046;-27
2023/10/07 00:17:06;;;;;;;4.63;2.95;;;;;;;19.34;50.42;97537.13;10268299;28;20117;-27
2023/10/07 00:22:08;;;;;;;6.05;3.20;;;;;;;19.32;50.22;97538.81;10267403;28;20039;-28
2023/10/07 00:27:30;;;;;;;6.03;3.25;;;;;;;19.31;50.16;97523.56;10267608;28;20027;-27
2023/10/07 00:32:32;;;;;;;4.95;2.80;;;;;;;19.33;50.11;97524.44;10275820;28;20413;-27
2023/10/07 00:37:38;;;;;;;5.55;3.15;;;;;;;19.30;49.82;97524.41;10263531;28;20035;-28
2023/10/07 00:42:41;;;;;;;4.35;3.17;;;;;;;19.27;49.98;97514.22;10284393;28;20451;-27
2023/10/07 00:47:43;;;;;;;4.10;2.60;;;;;;;19.33;49.89;97520.19;10272706;28;20089;-27
2023/10/07 00:58:04;;;;;;;5.47;3.17;;;;;;;19.29;50.22;97513.41;10272913;28;20517;-28
2023/10/07 01:03:51;;;;;;;5.13;3.33;;;;;;;19.29;49.75;97507.47;10263275;28;20035;-28
2023/10/07 01:08:35;;;;;;;4.40;2.70;;;;;;;19.29;49.67;97520.16;10267436;28;20051;-27
2023/10/07 01:13:45;;;;;;;5.60;3.05;;;;;;;19.26;49.58;97515.91;10266377;28;20039;-27
2023/10/07 01:18:46;;;;;;;5.40;3.13;;;;;;;19.26;49.39;97508.28;10264775;28;20030;-27
2023/10/07 01:23:46;;;;;;;5.40;2.90;;;;;;;19.26;49.31;97507.44;10257474;28;20039;-29
2023/10/07 01:28:49;;;;;;;3.53;2.70;;;;;;;19.25;49.20;97510.81;10274337;28;20093;-27
2023/10/07 01:33:51;;;;;;;5.88;3.15;;;;;;;19.23;49.35;97503.19;10271563;28;20035;-28
2023/10/07 01:38:53;;;;;;;4.10;2.72;;;;;;;19.29;49.39;97510.00;10271821;28;20489;-28
2023/10/07 01:43:59;;;;;;;5.50;3.42;;;;;;;19.27;49.17;97509.16;10271311;28;20053;-27
2023/10/07 01:49:17;;;;;;;4.70;2.60;;;;;;;19.25;49.11;97495.59;10266749;28;20042;-27
2023/10/07 01:54:20;;;;;;;4.30;2.85;;;;;;;19.22;49.05;97504.03;10299970;28;20027;-28
2023/10/07 01:59:22;;;;;;;5.15;3.22;;;;;;;19.19;48.43;97501.44;10286535;28;20494;-27
2023/10/07 02:04:28;;;;;;;4.53;2.85;;;;;;;19.20;48.89;97500.63;10281900;28;20034;-28
2023/10/07 02:09:35;;;;;;;4.60;3.20;;;;;;;19.22;48.77;97505.69;10282034;28;20067;-27
2023/10/07 02:14:36;;;;;;;4.68;2.67;;;;;;;19.19;49.28;97500.59;10280735;28;20038;-28
2023/10/07 02:19:40;;;;;;;4.90;3.00;;;;;;;19.19;49.16;97508.22;10276917;28;20106;-27
2023/10/07 02:24:41;;;;;;;4.55;2.97;;;;;;;19.17;48.56;97492.94;10277521;28;20054;-28
2023/10/07 02:29:41;;;;;;;5.78;2.97;;;;;;;19.18;48.93;97491.25;10284610;28;20518;-27
2023/10/07 02:34:52;;;;;;;4.68;2.70;;;;;;;19.17;48.64;97492.09;10283661;28;20031;-28
2023/10/07 02:40:22;;;;;;;5.85;3.30;;;;;;;19.16;48.48;97491.22;10279739;28;20130;-27
2023/10/07 02:45:28;;;;;;;5.55;3.15;;;;;;;19.17;48.31;97497.16;10271450;28;20061;-27
2023/10/07 02:50:31;;;;;;;4.65;3.20;;;;;;;19.14;48.34;97486.97;10284200;28;20050;-28
2023/10/07 02:55:45;;;;;;;4.85;2.88;;;;;;;19.15;48.18;97496.28;10280912;28;20545;-27
2023/10/07 03:00:51;;;;;;;4.55;3.13;;;;;;;19.08;48.25;97492.00;10285967;28;20038;-28
2023/10/07 03:05:58;;;;;;;;;;;;;;;19.14;48.00;97505.59;10289832;28;20723;-28
2023/10/07 03:11:09;;;;;;;4.65;3.22;;;;;;;19.12;48.04;97506.41;10293187;28;19921;-27
2023/10/07 03:16:27;;;;;;;6.00;3.13;;;;;;;19.13;47.86;97519.13;10287858;28;20027;-27
2023/10/07 03:26:46;;;;;;;6.35;3.33;;;;;;;19.10;48.05;97524.16;10285754;28;20027;-27
2023/10/07 03:31:47;;;;;;;4.68;2.70;;;;;;;19.12;48.10;97519.97;10284026;28;20038;-27
2023/10/07 03:42:09;;;;;;;5.75;3.10;;;;;;;19.11;47.59;97547.88;10292894;28;20106;-27
2023/10/07 03:47:10;;;;;;;6.05;3.25;;;;;;;19.02;47.43;97523.22;10281881;28;20042;-27
2023/10/07 03:52:13;;;;;;;4.82;2.58;;;;;;;19.10;47.35;97552.09;10292238;28;20556;-27
2023/10/07 03:57:18;;;;;;;4.95;3.00;;;;;;;19.09;47.29;97550.38;10287059;28;20037;-28
2023/10/07 04:02:34;;;;;;;4.78;3.20;;;;;;;19.07;47.28;97541.91;10288005;28;20042;-27
2023/10/07 04:07:35;;;;;;;4.18;2.70;;;;;;;19.08;47.25;97545.31;10290953;28;20034;-27
2023/10/07 04:12:36;;;;;;;4.40;2.47;;;;;;;19.05;47.17;97548.66;10290460;28;20046;-28
2023/10/07 04:17:39;;;;;;;4.10;2.55;;;;;;;19.07;47.23;97562.22;10288781;28;20031;-27
2023/10/07 04:22:39;;;;;;;5.35;2.70;;;;;;;19.06;46.77;97559.66;10291023;28;20050;-27
2023/10/07 04:27:42;;;;;;;4.30;2.97;;;;;;;19.05;46.87;97563.03;10289569;28;20413;-27
2023/10/07 04:32:52;;;;;;;4.35;2.60;;;;;;;19.05;46.65;97580.78;10289867;28;20039;-27
2023/10/07 04:38:08;;;;;;;4.45;3.00;;;;;;;19.07;46.81;97579.13;10284402;28;20121;-27
2023/10/07 04:48:24;;;;;;;5.07;3.10;;;;;;;19.04;46.70;97586.69;10287401;28;20039;-28
2023/10/07 04:53:25;;;;;;;5.13;2.80;;;;;;;19.04;46.52;97581.63;10289904;28;20424;-27
2023/10/07 04:58:25;;;;;;;3.53;2.40;;;;;;;19.05;46.03;97594.34;10288277;28;20027;-27
2023/10/07 05:03:26;;;;;;;4.63;2.73;;;;;;;19.05;46.23;97588.41;10288276;28;20034;-27
2023/10/07 05:08:27;;;;;;;3.47;2.40;;;;;;;19.01;46.24;97581.59;10289006;28;20575;-27
2023/10/07 05:13:28;;;;;;;3.35;2.17;;;;;;;18.99;46.81;97590.91;10288245;28;20050;-27
2023/10/07 05:18:28;;;;;;;4.23;2.37;;;;;;;19.00;46.12;97569.75;10285171;28;20038;-28
2023/10/07 05:23:28;;;;;;;4.93;3.20;;;;;;;19.01;46.16;97546.06;10286569;28;20047;-27
2023/10/07 05:28:33;;;;;;;5.00;2.60;;;;;;;18.87;45.11;97517.16;10286780;28;20386;-27
2023/10/07 05:33:34;;;;;;;5.70;3.42;;;;;;;18.52;42.27;97524.38;10290938;28;20405;-27
2023/10/07 05:38:40;;;;;;;3.53;2.50;;;;;;;18.09;40.61;97551.59;10288098;28;20030;-27
2023/10/07 05:43:46;;;;;;;4.75;2.42;;;;;;;17.60;41.21;97561.78;10278387;28;20050;-27
2023/10/07 05:48:47;;;;;;;4.65;2.88;;;;;;;17.59;41.37;97562.63;10284471;28;20049;-27
2023/10/07 05:53:48;;;;;;;4.45;2.33;;;;;;;17.71;40.68;97557.75;10287466;28;20555;-27
2023/10/07 05:58:49;;;;;;;5.15;2.97;;;;;;;17.64;39.97;97555.94;10286693;28;20089;-27
2023/10/07 06:03:52;;;;;;;8.25;2.80;;;;;;;17.69;38.93;97579.66;10278268;28;20072;-27
2023/10/07 06:08:52;;;;;;;6.30;2.72;;;;;;;17.72;39.87;97564.50;10284031;28;20054;-27
2023/10/07 06:13:52;;;;;;;4.77;2.80;;;;;;;17.77;39.34;97573.03;10277948;28;20034;-27
2023/10/07 06:18:54;;;;;;;4.27;2.30;;;;;;;17.65;39.35;97585.53;10268611;28;20285;-27
2023/10/07 06:24:07;;;;;;;4.03;2.38;;;;;;;17.69;39.21;97594.84;10277561;28;20049;-27
2023/10/07 06:29:18;;;;;;;6.05;3.30;;;;;;;17.72;39.27;97610.97;10267812;28;20026;-28
2023/10/07 06:34:25;;;;;;;5.20;2.45;;;;;;;17.63;41.36;97622.59;10279751;28;20610;-27
2023/10/07 06:39:28;;;;;;;5.80;2.90;;;;;;;17.30;40.74;97621.94;10284219;28;20050;-28
2023/10/07 06:44:30;;;;;;;6.05;2.78;;;;;;;17.26;40.71;97610.91;10279722;28;20038;-27
2023/10/07 06:49:34;;;;;;;4.35;2.83;;;;;;;16.90;40.52;97606.84;10279434;28;20045;-27
2023/10/07 06:54:34;;;;;;;3.97;2.40;;;;;;;17.24;40.15;97604.16;10282642;28;20034;-27
2023/10/07 06:59:39;;;;;;;5.40;2.50;;;;;;;16.98;40.57;97590.16;10281833;28;20033;-27
2023/10/07 07:04:41;;;;;;;4.57;2.70;;;;;;;16.68;41.15;97602.16;10269791;28;20035;-27
2023/10/07 07:14:50;;;;;;;6.07;3.42;;;;;;;16.35;44.18;97624.16;10266995;28;20035;-27
2023/10/07 07:25:29;;;;;;;6.07;3.15;;;;;;;16.75;44.22;97641.94;10279183;28;20450;-28
2023/10/07 07:30:30;;;;;;;4.97;2.78;;;;;;;16.95;43.63;97650.78;10267691;28;20042;-27
2023/10/07 07:35:40;;;;;;;5.60;2.60;;;;;;;17.03;44.00;97654.31;10258875;28;20033;-27
2023/10/07 07:40:42;;;;;;;8.35;3.00;;;;;;;17.07;44.42;97639.22;10266734;28;20118;-26
2023/10/07 07:45:46;;;;;;;5.80;2.38;;;;;;;17.12;45.26;97637.66;10277013;28;20051;-27
2023/10/07 07:50:48;;;;;;;7.38;2.67;;;;;;;17.62;43.85;97643.69;10278125;28;20489;-28
2023/10/07 07:55:51;;;;;;;6.32;2.22;;;;;;;17.90;43.62;97639.13;10287029;28;20517;-28
2023/10/07 08:00:58;;;;;;;5.18;2.67;;;;;;;17.85;44.08;97642.41;10279517;28;20038;-27
2023/10/07 08:05:59;;;;;;;6.25;2.75;;;;;;;17.89;44.14;97644.16;10292657;28;20047;-28
2023/10/07 08:10:59;;;;;;;5.00;2.67;;;;;;;17.93;43.34;97640.88;10291072;28;20035;-27
2023/10/07 08:16:06;;;;;;;5.67;3.00;;;;;;;18.02;44.25;97610.63;10292464;28;20289;-28
2023/10/07 08:21:13;;;;;;;5.10;2.97;;;;;;;18.05;44.42;97630.91;10288081;28;20038;-27
2023/10/07 08:26:20;;;;;;;7.18;3.55;;;;;;;18.17;45.54;97631.13;10276663;28;20126;-27
2023/10/07 08:31:21;;;;;;;5.65;3.17;;;;;;;18.23;45.46;97626.13;10277173;28;20039;-27
2023/10/07 08:36:29;;;;;;;7.18;2.92;;;;;;;18.30;45.61;97636.44;10282214;28;20022;-28
2023/10/07 08:41:29;;;;;;;7.20;2.88;;;;;;;18.43;45.33;97624.81;10279933;28;20088;-25
2023/10/07 08:46:33;;;;;;;12.90;3.23;;;;;;;18.55;45.57;97630.03;10282378;28;20575;-27
2023/10/07 08:51:39;;;;;;;7.60;3.42;;;;;;;18.55;45.72;97630.91;10278364;28;20031;-28
2023/10/07 08:56:40;;;;;;;;;;;;;;;18.61;45.66;97625.06;10280668;28;20081;-28
2023/10/07 09:01:44;;;;;;;8.85;2.92;;;;;;;18.64;45.96;97620.88;10285719;28;19968;-28
2023/10/07 09:06:50;;;;;;;10.05;2.60;;;;;;;18.68;45.89;97614.16;10287649;28;20043;-28
2023/10/07 09:11:52;;;;;;;7.40;3.35;;;;;;;18.69;46.28;97608.25;10288247;28;20113;-28
2023/10/07 09:16:52;;;;;;;6.20;3.08;;;;;;;18.69;46.56;97598.13;10283004;28;20038;-28
2023/10/07 09:21:57;;;;;;;8.40;3.20;;;;;;;18.72;46.65;97593.06;10288941;28;20039;-28
2023/10/07 09:26:58;;;;;;;6.78;3.05;;;;;;;18.74;46.72;97609.19;10287428;28;20137;-28
2023/10/07 09:32:04;;;;;;;6.05;3.00;;;;;;;18.77;46.93;97591.44;10287743;28;20035;-28
2023/10/07 09:37:09;;;;;;;7.85;3.75;;;;;;;18.72;47.06;97577.84;10283499;28;20539;-28
2023/10/07 09:42:36;;;;;;;7.05;2.65;;;;;;;18.78;47.17;97577.94;10287456;28;20038;-28
2023/10/07 09:47:38;;;;;;;6.45;2.45;;;;;;;18.80;47.40;97591.47;10283821;28;20081;-28
2023/10/07 09:52:41;;;;;;;6.55;2.80;;;;;;;18.81;47.78;97577.97;10287730;28;20416;-28
2023/10/07 09:58:11;;;;;;;5.13;3.13;;;;;;;18.83;47.80;97582.22;10282595;28;20027;-28
2023/10/07 10:03:25;;;;;;;6.05;3.00;;;;;;;18.83;47.87;97573.78;10281923;28;20038;-28
2023/10/07 10:08:59;;;;;;;4.15;1.92;;;;;;;18.85;48.03;97589.88;10284918;28;20058;-28
2023/10/07 10:19:37;;;;;;;4.38;2.35;;;;;;;18.89;48.15;97619.50;10285300;28;20174;-28
2023/10/07 10:24:42;;;;;;;5.25;3.35;;;;;;;18.87;48.22;97628.78;10286424;28;20031;-28
2023/10/07 10:29:55;;;;;;;4.93;2.55;;;;;;;18.89;48.51;97649.94;10284246;28;20106;-28
2023/10/07 10:35:00;;;;;;;6.40;2.67;;;;;;;18.89;48.62;97662.63;10285600;28;20030;-28
2023/10/07 10:40:15;;;;;;;4.70;2.40;;;;;;;18.89;48.58;97667.72;10286276;28;20113;-28
2023/10/07 10:45:24;;;;;;;5.97;2.80;;;;;;;18.91;48.87;97678.75;10275620;28;20047;-27
2023/10/07 10:50:28;;;;;;;4.15;2.10;;;;;;;18.92;48.86;97677.94;10282514;28;20045;-27
2023/10/07 10:55:36;;;;;;;4.53;2.08;;;;;;;18.91;49.50;97671.16;10284767;28;20109;-27
2023/10/07 11:00:48;;;;;;;7.60;2.60;;;;;;;18.94;49.40;97681.34;10281771;28;20052;-28
2023/10/07 11:05:54;;;;;;;4.93;2.45;;;;;;;19.00;49.00;97666.19;10292192;28;20038;-28
2023/10/07 11:11:00;;;;;;;6.43;2.03;;;;;;;19.02;48.83;97664.53;10276554;28;20417;-28
2023/10/07 11:16:10;;;;;;;4.65;1.98;;;;;;;19.01;48.66;97660.28;10270048;28;20027;-28
2023/10/07 11:21:19;;;;;;;3.25;1.95;;;;;;;19.01;49.02;97662.81;10288577;28;20043;-28
2023/10/07 11:26:24;;;;;;;10.40;3.22;;;;;;;18.99;49.23;97639.94;10280926;28;20038;-27
2023/10/07 11:31:30;;;;;;;5.27;2.30;;;;;;;19.01;49.32;97628.13;10278953;28;20062;-28
2023/10/07 11:36:45;;;;;;;4.25;2.38;;;;;;;19.01;49.44;97622.22;10283027;28;20555;-28
2023/10/07 11:41:47;;;;;;;6.95;3.22;;;;;;;19.01;49.50;97627.28;10281821;28;20112;-28
2023/10/07 11:46:47;;;;;;;8.15;2.58;;;;;;;19.02;49.53;97618.84;10288927;28;20405;-27
2023/10/07 11:51:48;;;;;;;3.97;2.30;;;;;;;19.02;49.55;97611.22;10289588;28;20047;-28
2023/10/07 11:56:48;;;;;;;5.47;2.45;;;;;;;19.02;49.65;97598.53;10283506;28;20073;-28
2023/10/07 12:01:50;;;;;;;5.47;3.17;;;;;;;19.03;49.63;97597.69;10285031;28;20057;-28
2023/10/07 12:06:51;;;;;;;5.82;2.15;;;;;;;19.04;50.20;97592.66;10283445;28;20030;-28
2023/10/07 12:11:53;;;;;;;6.43;2.40;;;;;;;19.01;50.45;97590.06;10283103;28;20490;-28
2023/10/07 12:16:55;;;;;;;7.68;2.53;;;;;;;19.02;50.42;97583.31;10283165;28;20047;-28
2023/10/07 12:21:56;;;;;;;6.43;2.30;;;;;;;19.06;50.29;97577.41;10290945;28;20043;-27
2023/10/07 12:26:56;;;;;;;5.95;2.90;;;;;;;19.09;50.27;97575.75;10289589;28;20035;-28
2023/10/07 12:31:57;;;;;;;4.93;2.00;;;;;;;19.07;50.17;97585.06;10277357;28;20022;-27
2023/10/07 12:36:57;;;;;;;6.35;2.22;;;;;;;19.09;50.23;97588.44;10278060;28;20107;-27
2023/10/07 12:41:57;;;;;;;4.40;2.47;;;;;;;19.09;50.09;97596.06;10290044;28;20386;-27
2023/10/07 12:47:00;;;;;;;7.53;2.30;;;;;;;19.10;50.14;97591.84;10284560;28;20041;-28
2023/10/07 12:52:00;;;;;;;5.90;2.60;;;;;;;19.09;50.43;97585.09;10289659;28;20035;-27
2023/10/07 12:57:03;;;;;;;6.27;3.40;;;;;;;19.10;50.36;97591.84;10279465;28;20030;-27
2023/10/07 13:02:03;;;;;;;5.75;2.35;;;;;;;19.10;50.42;97594.41;10288486;28;20290;-28
2023/10/07 13:07:09;;;;;;;4.32;2.30;;;;;;;19.09;50.45;97587.63;10288947;28;20501;-29
2023/10/07 13:12:15;;;;;;;11.75;2.40;;;;;;;19.06;51.45;97579.94;10279535;28;20101;-28
2023/10/07 13:17:16;;;;;;;3.77;2.50;;;;;;;19.12;50.49;97587.63;10283163;28;20097;-28
2023/10/07 13:22:18;;;;;;;5.40;2.10;;;;;;;19.13;50.37;97596.97;10287545;28;20058;-29
2023/10/07 13:27:20;;;;;;;4.75;2.13;;;;;;;19.13;50.83;97596.97;10282394;28;20291;-29
2023/10/07 13:32:20;;;;;;;5.45;2.22;;;;;;;19.12;50.64;97596.13;10286537;28;20035;-28
2023/10/07 13:37:20;;;;;;;6.35;2.97;;;;;;;19.13;50.28;97586.81;10281933;28;20502;-28
2023/10/07 13:42:23;;;;;;;6.63;2.43;;;;;;;19.13;50.14;97584.28;10286126;28;20548;-27
2023/10/07 13:47:23;;;;;;;5.07;2.42;;;;;;;19.13;50.25;97584.28;10285942;28;20482;-28
2023/10/07 13:52:23;;;;;;;7.37;3.00;;;;;;;19.11;51.30;97576.66;10287809;28;20038;-28
2023/10/07 13:57:26;;;;;;;4.40;2.00;;;;;;;19.02;51.51;97568.06;10281174;28;20047;-28
2023/10/07 14:02:27;;;;;;;7.05;2.60;;;;;;;19.05;51.28;97561.34;10284231;28;20039;-27
2023/10/07 14:07:29;;;;;;;9.65;2.30;;;;;;;19.12;50.44;97564.81;10283223;28;20045;-27
2023/10/07 14:12:30;;;;;;;6.13;2.70;;;;;;;19.04;51.00;97558.78;10285263;28;20050;-27
2023/10/07 14:17:31;;;;;;;4.88;2.15;;;;;;;19.13;50.71;97564.81;10276855;28;20045;-27
2023/10/07 14:22:31;;;;;;;9.00;3.47;;;;;;;19.15;50.31;97555.53;10273971;28;20037;-29
2023/10/07 14:27:31;;;;;;;5.37;2.40;;;;;;;19.14;50.04;97555.50;10279645;28;20047;-28
2023/10/07 14:32:32;;;;;;;4.43;2.33;;;;;;;19.16;50.34;97569.94;10286022;28;20035;-29
2023/10/07 14:37:34;;;;;;;5.20;2.27;;;;;;;19.17;50.14;97568.25;10286172;28;20030;-28
2023/10/07 14:42:34;;;;;;;6.05;2.60;;;;;;;19.16;50.28;97572.47;10285849;28;20372;-28
2023/10/07 14:47:35;;;;;;;4.63;2.30;;;;;;;19.16;50.37;97581.78;10272545;28;20053;-27
2023/10/07 14:52:35;;;;;;;5.60;2.87;;;;;;;19.18;50.22;97577.56;10284863;28;20139;-29
2023/10/07 14:57:35;;;;;;;6.83;2.60;;;;;;;19.18;50.48;97580.09;10293787;28;20093;-28
2023/10/07 15:02:39;;;;;;;6.43;2.27;;;;;;;19.15;50.31;97580.06;10293324;28;20310;-28
2023/10/07 15:07:40;;;;;;;5.68;2.88;;;;;;;19.17;50.56;97575.88;10290843;28;20710;-28
2023/10/07 15:12:41;;;;;;;5.03;2.55;;;;;;;19.17;50.45;97578.41;10285593;28;20061;-28
2023/10/07 15:17:41;;;;;;;4.17;2.30;;;;;;;19.16;50.64;97580.06;10292896;28;20041;-28
2023/10/07 15:22:42;;;;;;;3.73;2.20;;;;;;;19.18;50.64;97585.19;10284634;28;20653;-27
2023/10/07 15:27:43;;;;;;;5.20;2.85;;;;;;;19.18;50.63;97582.66;10292344;28;20050;-28
2023/10/07 15:32:44;;;;;;;5.30;2.20;;;;;;;19.18;50.72;97585.19;10293279;28;20432;-28
2023/10/07 15:37:48;;;;;;;5.38;2.70;;;;;;;19.16;50.60;97586.84;10281944;28;20286;-28
2023/10/07 15:42:48;;;;;;;4.80;2.20;;;;;;;19.17;50.71;97597.00;10283267;28;20038;-27
2023/10/07 15:47:48;;;;;;;4.70;2.25;;;;;;;19.18;50.68;97592.81;10288308;28;20034;-27
2023/10/07 15:52:50;;;;;;;3.23;1.90;;;;;;;19.12;50.73;97587.63;10289625;28;20031;-29
2023/10/07 15:57:50;;;;;;;5.45;3.05;;;;;;;19.19;50.85;97602.97;10285546;28;20038;-28
2023/10/07 16:02:51;;;;;;;4.43;2.73;;;;;;;19.19;50.85;97607.22;10290539;28;20043;-27
2023/10/07 16:07:51;;;;;;;4.00;2.20;;;;;;;19.19;50.74;97614.84;10274560;28;20038;-28
2023/10/07 16:12:52;;;;;;;3.73;2.40;;;;;;;19.15;50.73;97610.50;10285835;28;20039;-27
2023/10/07 16:17:56;;;;;;;3.45;2.35;;;;;;;19.20;51.25;97608.94;10290350;28;20079;-28
2023/10/07 16:22:59;;;;;;;3.30;1.98;;;;;;;19.19;50.81;97617.38;10282725;28;20035;-28
2023/10/07 16:27:59;;;;;;;3.28;2.15;;;;;;;19.20;50.93;97626.69;10283438;28;20035;-28
2023/10/07 16:33:00;;;;;;;3.47;2.53;;;;;;;19.19;50.98;97633.44;10289528;28;20630;-27
2023/10/07 16:38:00;;;;;;;7.87;2.30;;;;;;;19.20;51.68;97634.31;10289282;28;20046;-27
2023/10/07 16:43:00;;;;;;;6.20;3.28;;;;;;;19.17;50.75;97640.16;10277325;28;20062;-28
2023/10/07 16:48:02;;;;;;;7.63;3.17;;;;;;;19.15;50.29;97640.97;10285829;28;20042;-28
2023/10/07 16:53:02;;;;;;;4.63;2.42;;;;;;;19.17;50.85;97644.41;10290068;28;20070;-28
2023/10/07 16:58:03;;;;;;;3.78;2.20;;;;;;;19.18;50.90;97651.19;10289395;28;20465;-27
2023/10/07 17:03:04;;;;;;;3.85;2.05;;;;;;;19.22;51.10;97648.72;10288610;28;20038;-28
2023/10/07 17:08:06;;;;;;;6.40;2.53;;;;;;;19.24;51.42;97646.22;10289493;28;20046;-27
2023/10/07 17:13:10;;;;;;;6.68;2.35;;;;;;;19.26;51.34;97649.63;10287625;28;20038;-28
2023/10/07 17:18:11;;;;;;;8.77;3.70;;;;;;;19.26;51.72;97654.69;10289278;28;20022;-29
2023/10/07 17:23:11;;;;;;;9.60;3.05;;;;;;;19.25;51.50;97661.44;10289164;28;20030;-28
2023/10/07 17:28:14;;;;;;;10.10;2.88;;;;;;;19.23;51.41;97654.66;10287700;28;20046;-28
2023/10/07 17:33:15;;;;;;;8.32;2.80;;;;;;;19.23;51.76;97657.19;10285437;28;20512;-27
2023/10/07 17:38:15;;;;;;;9.40;3.20;;;;;;;19.17;52.29;97669.78;10278158;28;20027;-28
2023/10/07 17:43:16;;;;;;;7.53;3.42;;;;;;;19.23;51.44;97669.88;10282921;28;20027;-28
2023/10/07 17:48:17;;;;;;;6.72;2.45;;;;;;;19.23;51.35;97660.59;10273758;28;20038;-28
2023/10/07 17:53:17;;;;;;;6.40;2.40;;;;;;;19.23;51.53;97669.88;10278466;28;20023;-29
2023/10/07 17:58:18;;;;;;;8.50;2.80;;;;;;;19.23;51.35;97670.75;10272528;28;20035;-28
2023/10/07 18:03:19;;;;;;;7.82;2.60;;;;;;;19.23;51.71;97667.34;10277519;28;20292;-29
2023/10/07 18:08:20;;;;;;;6.65;2.60;;;;;;;19.23;51.29;97669.88;10276669;28;20501;-27
2023/10/07 18:13:20;;;;;;;8.03;3.10;;;;;;;19.19;52.09;97669.00;10273493;28;20046;-29
2023/10/07 18:18:20;;;;;;;4.70;2.53;;;;;;;19.24;51.93;97664.00;10275976;28;20290;-27
2023/10/07 18:23:21;;;;;;;11.87;3.53;;;;;;;19.26;52.52;97665.69;10264517;28;20030;-28
2023/10/07 18:28:22;;;;;;;6.28;2.75;;;;;;;19.28;51.92;97658.09;10278522;28;20031;-28
2023/10/07 18:33:22;;;;;;;6.78;3.35;;;;;;;19.26;52.86;97655.53;10279861;28;20030;-28
2023/10/07 18:38:23;;;;;;;6.25;3.05;;;;;;;19.26;52.03;97649.63;10274320;28;20058;-28
2023/10/07 18:43:23;;;;;;;6.00;2.80;;;;;;;19.26;51.92;97660.63;10280103;28;20138;-28
2023/10/07 18:48:23;;;;;;;6.53;2.97;;;;;;;19.24;51.70;97657.22;10275775;28;20062;-30
2023/10/07 18:53:24;;;;;;;3.97;2.50;;;;;;;19.24;51.72;97652.13;10277818;28;20039;-27
2023/10/07 18:58:27;;;;;;;8.60;3.07;;;;;;;19.24;51.73;97647.06;10278057;28;20039;-28
2023/10/07 19:03:28;;;;;;;5.70;2.67;;;;;;;19.22;51.58;97650.41;10276277;28;20671;-28
2023/10/07 19:08:31;;;;;;;6.55;2.53;;;;;;;19.25;52.08;97650.47;10276316;28;20113;-27
2023/10/07 19:13:32;;;;;;;8.90;2.88;;;;;;;19.26;52.40;97654.69;10268219;28;20035;-28
2023/10/07 19:18:32;;;;;;;4.05;2.75;;;;;;;19.27;52.72;97656.41;10272834;28;20034;-28
2023/10/07 19:23:32;;;;;;;7.67;3.30;;;;;;;19.27;52.24;97664.03;10274475;28;20042;-28
2023/10/07 19:28:33;;;;;;;5.20;2.50;;;;;;;19.27;52.29;97666.56;10270028;28;20047;-29
2023/10/07 19:33:34;;;;;;;3.97;2.47;;;;;;;19.25;52.04;97668.25;10268111;28;20302;-29
2023/10/07 19:38:35;;;;;;;4.23;2.43;;;;;;;19.25;51.92;97670.78;10278551;28;20026;-28
2023/10/07 19:43:36;;;;;;;5.65;2.47;;;;;;;19.24;51.78;97674.97;10291510;28;20061;-28
2023/10/07 19:48:36;;;;;;;3.73;2.03;;;;;;;19.24;51.94;97682.59;10283162;28;20681;-28
2023/10/07 19:53:36;;;;;;;5.03;2.57;;;;;;;19.23;52.00;97685.97;10287087;28;20110;-28
2023/10/07 19:58:37;;;;;;;4.03;2.50;;;;;;;19.25;51.95;97688.53;10280308;28;20368;-28
2023/10/07 20:03:38;;;;;;;4.78;2.85;;;;;;;19.23;52.18;97698.69;10283262;28;20034;-28
2023/10/07 20:08:41;;;;;;;5.03;2.08;;;;;;;19.24;51.86;97699.53;10290249;28;20060;-27
2023/10/07 20:13:42;;;;;;;4.15;2.03;;;;;;;19.23;52.28;97698.69;10286176;28;20118;-28
2023/10/07 20:18:42;;;;;;;7.07;1.80;;;;;;;19.25;51.78;97694.47;10286149;28;20035;-28
2023/10/07 20:23:43;;;;;;;3.43;1.93;;;;;;;19.24;51.82;97691.94;10284562;28;20480;-28
2023/10/07 20:28:43;;;;;;;6.85;2.30;;;;;;;19.22;52.64;97698.66;10284734;28;20446;-27
2023/10/07 20:33:45;;;;;;;3.93;2.27;;;;;;;19.23;52.19;97700.34;10286190;28;20031;-28
2023/10/07 20:38:45;;;;;;;4.97;2.10;;;;;;;19.24;52.33;97697.00;10286759;28;20044;-27
2023/10/07 20:43:46;;;;;;;5.63;2.47;;;;;;;19.23;52.17;97697.81;10284849;28;20074;-28
2023/10/07 20:48:46;;;;;;;6.10;2.70;;;;;;;19.23;52.09;97698.69;10279292;28;20361;-28
2023/10/07 20:53:47;;;;;;;3.30;2.00;;;;;;;19.23;52.04;97695.28;10278853;28;20035;-28
2023/10/07 20:58:48;;;;;;;3.60;1.75;;;;;;;19.24;52.08;97697.00;10286229;28;20037;-26
2023/10/07 21:03:50;;;;;;;4.10;2.47;;;;;;;19.23;52.06;97695.28;10285325;28;20094;-28
2023/10/07 21:08:51;;;;;;;3.53;1.88;;;;;;;19.22;52.07;97680.88;10283667;28;20086;-27
2023/10/07 21:13:57;;;;;;;5.88;2.47;;;;;;;19.21;52.06;97677.50;10285192;28;20101;-29
2023/10/07 21:19:00;;;;;;;2.72;1.90;;;;;;;19.22;51.79;97675.78;10284670;28;20041;-28
2023/10/07 21:24:01;;;;;;;3.67;2.53;;;;;;;19.19;51.92;97668.16;10278277;28;20049;-27
2023/10/07 21:29:02;;;;;;;3.93;2.00;;;;;;;19.23;51.92;97674.97;10272408;28;20520;-28
2023/10/07 21:34:08;;;;;;;2.70;1.95;;;;;;;19.21;52.12;97666.47;10281066;28;20039;-27
2023/10/07 21:39:11;;;;;;;4.83;2.60;;;;;;;19.21;52.62;97661.41;10274563;28;20027;-27
2023/10/07 21:44:11;;;;;;;4.53;2.83;;;;;;;19.22;52.56;97665.63;10285208;28;20037;-28
2023/10/07 21:49:12;;;;;;;3.53;2.10;;;;;;;19.21;52.53;97663.94;10286101;28;20038;-28
2023/10/07 21:54:12;;;;;;;3.95;2.10;;;;;;;19.22;52.21;97668.19;10287833;28;20035;-28
2023/10/07 21:59:13;;;;;;;4.03;2.10;;;;;;;19.21;52.24;97656.31;10284784;28;20030;-28
2023/10/07 22:04:13;;;;;;;3.35;2.08;;;;;;;19.21;52.08;97651.25;10281054;28;20035;-28
2023/10/07 22:09:18;;;;;;;3.87;2.50;;;;;;;19.21;52.15;97643.63;10279311;28;20030;-27
2023/10/07 22:14:18;;;;;;;5.35;2.20;;;;;;;19.20;52.30;97639.38;10284856;28;20502;-28
2023/10/07 22:19:19;;;;;;;4.13;2.40;;;;;;;19.21;52.15;97639.41;10285320;28;20026;-28
2023/10/07 22:24:19;;;;;;;6.15;2.35;;;;;;;19.21;52.11;97651.25;10286818;28;20081;-28
2023/10/07 22:29:21;;;;;;;3.03;1.87;;;;;;;19.21;52.03;97648.69;10286277;28;20085;-28
2023/10/07 22:34:24;;;;;;;3.30;1.92;;;;;;;19.21;52.26;97646.16;10285616;28;20058;-29
2023/10/07 22:39:30;;;;;;;3.67;1.77;;;;;;;19.20;51.96;97634.31;10286470;28;20038;-27
2023/10/07 22:44:31;;;;;;;2.47;1.88;;;;;;;19.20;52.17;97629.22;10285796;28;20116;-28
2023/10/07 22:49:33;;;;;;;3.20;1.90;;;;;;;19.20;52.31;97624.16;10285506;28;20051;-27
2023/10/07 22:54:40;;;;;;;3.67;1.77;;;;;;;19.20;52.28;97627.56;10286292;28;20043;-27
2023/10/07 22:59:41;;;;;;;4.22;1.88;;;;;;;19.20;52.36;97627.56;10285682;28;20519;-28
2023/10/07 23:04:47;;;;;;;3.72;2.03;;;;;;;19.20;52.50;97634.31;10271741;28;20035;-27
2023/10/07 23:09:47;;;;;;;3.25;2.03;;;;;;;19.19;52.20;97633.44;10281971;28;20045;-28
2023/10/07 23:14:48;;;;;;;3.30;2.03;;;;;;;19.19;52.45;97628.38;10291627;28;20035;-28
2023/10/07 23:19:48;;;;;;;3.20;2.05;;;;;;;19.19;52.48;97625.00;10292729;28;20394;-27
2023/10/07 23:25:13;;;;;;;2.93;1.80;;;;;;;19.19;52.48;97633.44;10292887;28;20405;-27
2023/10/07 23:30:32;;;;;;;4.20;2.30;;;;;;;19.19;53.62;97637.69;10293432;28;20039;-27
2023/10/07 23:35:40;;;;;;;5.10;2.22;;;;;;;19.18;53.40;97641.88;10291021;28;20070;-28
2023/10/07 23:40:43;;;;;;;5.15;2.70;;;;;;;19.18;52.67;97631.72;10292383;28;20062;-28
2023/10/07 23:45:43;;;;;;;2.65;2.03;;;;;;;19.18;52.64;97633.41;10290158;28;20031;-27
2023/10/07 23:50:48;;;;;;;2.67;1.70;;;;;;;19.18;52.60;97641.88;10291817;28;20437;-28
2023/10/07 23:56:04;;;;;;;3.00;1.90;;;;;;;19.18;52.62;97635.97;10291901;28;20034;-29
